Alpha, OH

12:17 PM EST on March 05, 2015 (GMT -0500)
Beavercreek TWP | Change Station
CLOSE
Current Station
Personal Weather Station
Location: Xenia, OH
Elevation: 856 ft
Nearby Weather Stations

Elev 856 ft 39.72 °N, 84.00 °W | Updated 9 minutes ago

Overcast
Overcast
24.3 °F
Feels Like 17 °F
N
6.0
Wind Variable Wind from North
Gusts 13.0 mph

Today
High -- | Low -- °F
--% Chance of Precip.
Yesterday
High -- | Low -- °F
Precip. -- in
7:03 AM 6:32 PM
Full, 100% visible
Pressure 30.41 in
Visibility 10.0 miles
Clouds Few 9000 ft
Few 17000 ft
Mostly Cloudy 25000 ft
Windchill 17 °F
Dew Point 10 °F
Humidity 55%
Rainfall in
Snow Depth Not available.
UV 3 out of 12
Pollen .60 out of 12
Air Quality Not available.
Flu Activity Not available.
METAR KFFO 051658Z 36010KT 10SM FEW090 FEW170 BKN250 M07/M16 A3036 RMK AO2A SLP297 T10721156

More Conditions Fewer Conditions

Pressure 30.41 in
Visibility 10.0 miles
Clouds Few 9000 ft
Few 17000 ft
Mostly Cloudy 25000 ft
Windchill 17 °F
Dew Point 10 °F
Humidity 55%
Rainfall in
Snow Depth Not available.
UV 3 out of 12
Pollen .60 out of 12
Air Quality Not available.
Flu Activity Not available.
METAR KFFO 051658Z 36010KT 10SM FEW090 FEW170 BKN250 M07/M16 A3036 RMK AO2A SLP297 T10721156

More Conditions Fewer Conditions

10-Day Weather Forecast

Almanac

Astronomy

Mar. 05, 2015 Rise Set
Actual Time
Civil Twilight
Nautical Twilight
Astronomical Twilight
Moon
Length of Visible Light
Length of Day
Tomorrow will be .
, % of the Moon is Illuminated

Today's Extremes

State Highs State Lows

Community

WunderPhotos

Upload Photos

1,802,866 photos uploaded!

WunderBlogs® & News

Nearby

Air Quality

  Air Quality AQ Index Pollutant
Not available.

Snow Depth

Station Depth Elevation

Earthquake Activity

City Distance Mag. Time & Date
Minimum magnitude displayed is 2.5.

Coastal Water Temperatures

Place Temperature

Nearby Weather Stations